sensor_id;sensor_type;location;lat;lon;timestamp;P1;durP1;ratioP1;P2;durP2;ratioP2
11761;SDS011;5938;47.098;15.474;2023-02-01T00:02:53;5.53;;;4.37;;
11761;SDS011;5938;47.098;15.474;2023-02-01T00:06:57;9.90;;;5.87;;
11761;SDS011;5938;47.098;15.474;2023-02-01T00:11:01;6.47;;;4.70;;
11761;SDS011;5938;47.098;15.474;2023-02-01T00:15:08;10.33;;;5.67;;
11761;SDS011;5938;47.098;15.474;2023-02-01T00:19:13;9.10;;;5.43;;
11761;SDS011;5938;47.098;15.474;2023-02-01T00:23:17;7.00;;;4.80;;
11761;SDS011;5938;47.098;15.474;2023-02-01T00:27:21;9.50;;;5.27;;
11761;SDS011;5938;47.098;15.474;2023-02-01T00:31:26;7.83;;;4.70;;
11761;SDS011;5938;47.098;15.474;2023-02-01T00:35:30;7.33;;;4.53;;
11761;SDS011;5938;47.098;15.474;2023-02-01T00:39:36;7.37;;;4.47;;
11761;SDS011;5938;47.098;15.474;2023-02-01T00:43:39;9.27;;;5.93;;
11761;SDS011;5938;47.098;15.474;2023-02-01T00:47:45;5.53;;;4.70;;
11761;SDS011;5938;47.098;15.474;2023-02-01T00:51:49;6.13;;;4.43;;
11761;SDS011;5938;47.098;15.474;2023-02-01T00:55:52;6.53;;;5.00;;
11761;SDS011;5938;47.098;15.474;2023-02-01T00:59:56;7.20;;;5.37;;
11761;SDS011;5938;47.098;15.474;2023-02-01T01:04:01;6.90;;;4.60;;
11761;SDS011;5938;47.098;15.474;2023-02-01T01:08:04;8.93;;;4.20;;
11761;SDS011;5938;47.098;15.474;2023-02-01T01:12:08;7.13;;;5.80;;
11761;SDS011;5938;47.098;15.474;2023-02-01T01:16:12;7.53;;;5.43;;
11761;SDS011;5938;47.098;15.474;2023-02-01T01:20:18;7.10;;;4.83;;
11761;SDS011;5938;47.098;15.474;2023-02-01T01:24:23;9.27;;;4.43;;
11761;SDS011;5938;47.098;15.474;2023-02-01T01:28:27;6.63;;;5.37;;
11761;SDS011;5938;47.098;15.474;2023-02-01T01:32:30;9.13;;;5.13;;
11761;SDS011;5938;47.098;15.474;2023-02-01T01:36:35;6.10;;;4.23;;
11761;SDS011;5938;47.098;15.474;2023-02-01T01:40:39;5.00;;;4.10;;
11761;SDS011;5938;47.098;15.474;2023-02-01T01:44:57;6.07;;;3.93;;
11761;SDS011;5938;47.098;15.474;2023-02-01T01:49:05;7.10;;;5.00;;
11761;SDS011;5938;47.098;15.474;2023-02-01T01:53:16;7.53;;;4.87;;
11761;SDS011;5938;47.098;15.474;2023-02-01T01:57:23;9.10;;;3.97;;
11761;SDS011;5938;47.098;15.474;2023-02-01T02:01:30;6.13;;;4.00;;
11761;SDS011;5938;47.098;15.474;2023-02-01T02:05:34;5.80;;;4.10;;
11761;SDS011;5938;47.098;15.474;2023-02-01T02:09:39;7.17;;;4.70;;
11761;SDS011;5938;47.098;15.474;2023-02-01T02:14:00;5.43;;;3.10;;
11761;SDS011;5938;47.098;15.474;2023-02-01T02:18:07;3.90;;;3.50;;
11761;SDS011;5938;47.098;15.474;2023-02-01T02:22:27;6.47;;;3.43;;
11761;SDS011;5938;47.098;15.474;2023-02-01T02:27:01;8.30;;;5.13;;
11761;SDS011;5938;47.098;15.474;2023-02-01T02:36:00;7.50;;;4.17;;
11761;SDS011;5938;47.098;15.474;2023-02-01T02:40:13;6.00;;;3.20;;
11761;SDS011;5938;47.098;15.474;2023-02-01T02:44:24;16.47;;;3.63;;
11761;SDS011;5938;47.098;15.474;2023-02-01T02:48:53;5.30;;;3.63;;
11761;SDS011;5938;47.098;15.474;2023-02-01T02:53:05;3.93;;;2.57;;
11761;SDS011;5938;47.098;15.474;2023-02-01T02:57:31;5.93;;;4.00;;
11761;SDS011;5938;47.098;15.474;2023-02-01T03:01:55;7.40;;;4.33;;
11761;SDS011;5938;47.098;15.474;2023-02-01T03:06:17;4.73;;;4.17;;
11761;SDS011;5938;47.098;15.474;2023-02-01T03:10:26;13.83;;;6.73;;
11761;SDS011;5938;47.098;15.474;2023-02-01T03:14:40;5.50;;;3.53;;
11761;SDS011;5938;47.098;15.474;2023-02-01T03:18:48;4.47;;;3.73;;
11761;SDS011;5938;47.098;15.474;2023-02-01T03:22:56;3.23;;;2.93;;
11761;SDS011;5938;47.098;15.474;2023-02-01T03:27:05;3.67;;;3.10;;
11761;SDS011;5938;47.098;15.474;2023-02-01T03:31:11;4.67;;;3.80;;
11761;SDS011;5938;47.098;15.474;2023-02-01T03:35:15;6.93;;;3.40;;
11761;SDS011;5938;47.098;15.474;2023-02-01T03:39:20;4.83;;;3.27;;
11761;SDS011;5938;47.098;15.474;2023-02-01T03:43:32;5.87;;;3.90;;
11761;SDS011;5938;47.098;15.474;2023-02-01T03:47:46;3.93;;;2.40;;
11761;SDS011;5938;47.098;15.474;2023-02-01T03:51:52;4.63;;;3.23;;
11761;SDS011;5938;47.098;15.474;2023-02-01T03:55:59;4.50;;;3.13;;
11761;SDS011;5938;47.098;15.474;2023-02-01T04:00:05;6.03;;;3.47;;
11761;SDS011;5938;47.098;15.474;2023-02-01T04:04:11;3.87;;;3.10;;
11761;SDS011;5938;47.098;15.474;2023-02-01T04:08:21;4.40;;;3.00;;
11761;SDS011;5938;47.098;15.474;2023-02-01T04:12:25;3.47;;;2.63;;
11761;SDS011;5938;47.098;15.474;2023-02-01T04:16:31;4.23;;;2.50;;
11761;SDS011;5938;47.098;15.474;2023-02-01T04:20:35;4.10;;;2.30;;
11761;SDS011;5938;47.098;15.474;2023-02-01T04:24:38;3.70;;;3.40;;
11761;SDS011;5938;47.098;15.474;2023-02-01T04:28:42;4.43;;;2.50;;
11761;SDS011;5938;47.098;15.474;2023-02-01T04:32:47;2.53;;;1.60;;
11761;SDS011;5938;47.098;15.474;2023-02-01T04:36:51;4.30;;;2.60;;
11761;SDS011;5938;47.098;15.474;2023-02-01T04:40:54;4.23;;;3.20;;
11761;SDS011;5938;47.098;15.474;2023-02-01T04:44:58;4.60;;;2.70;;
11761;SDS011;5938;47.098;15.474;2023-02-01T04:49:03;6.20;;;2.43;;
11761;SDS011;5938;47.098;15.474;2023-02-01T04:53:07;2.87;;;2.33;;
11761;SDS011;5938;47.098;15.474;2023-02-01T04:57:10;5.17;;;3.20;;
11761;SDS011;5938;47.098;15.474;2023-02-01T05:01:14;4.83;;;2.67;;
11761;SDS011;5938;47.098;15.474;2023-02-01T05:05:19;6.47;;;3.03;;
11761;SDS011;5938;47.098;15.474;2023-02-01T05:09:23;34.60;;;16.60;;
11761;SDS011;5938;47.098;15.474;2023-02-01T05:13:27;16.67;;;12.33;;
11761;SDS011;5938;47.098;15.474;2023-02-01T05:17:48;6.63;;;5.40;;
11761;SDS011;5938;47.098;15.474;2023-02-01T05:21:53;11.13;;;8.30;;
11761;SDS011;5938;47.098;15.474;2023-02-01T05:26:00;9.13;;;5.90;;
11761;SDS011;5938;47.098;15.474;2023-02-01T05:30:05;3.60;;;3.20;;
11761;SDS011;5938;47.098;15.474;2023-02-01T05:34:09;4.80;;;3.67;;
11761;SDS011;5938;47.098;15.474;2023-02-01T05:38:15;5.73;;;4.50;;
11761;SDS011;5938;47.098;15.474;2023-02-01T05:42:18;4.83;;;3.03;;
11761;SDS011;5938;47.098;15.474;2023-02-01T05:46:22;7.77;;;3.20;;
11761;SDS011;5938;47.098;15.474;2023-02-01T05:50:26;7.00;;;5.00;;
11761;SDS011;5938;47.098;15.474;2023-02-01T05:54:32;6.47;;;4.50;;
11761;SDS011;5938;47.098;15.474;2023-02-01T05:58:36;5.10;;;4.60;;
11761;SDS011;5938;47.098;15.474;2023-02-01T06:02:40;4.67;;;4.27;;
11761;SDS011;5938;47.098;15.474;2023-02-01T06:06:44;4.70;;;3.90;;
11761;SDS011;5938;47.098;15.474;2023-02-01T06:10:49;8.83;;;5.70;;
11761;SDS011;5938;47.098;15.474;2023-02-01T06:14:53;4.73;;;4.20;;
11761;SDS011;5938;47.098;15.474;2023-02-01T06:18:57;5.30;;;4.00;;
11761;SDS011;5938;47.098;15.474;2023-02-01T06:23:01;7.23;;;4.93;;
11761;SDS011;5938;47.098;15.474;2023-02-01T06:27:07;8.27;;;6.20;;
11761;SDS011;5938;47.098;15.474;2023-02-01T06:31:12;7.90;;;4.77;;
11761;SDS011;5938;47.098;15.474;2023-02-01T06:35:15;6.63;;;5.47;;
11761;SDS011;5938;47.098;15.474;2023-02-01T06:39:19;7.47;;;5.80;;
11761;SDS011;5938;47.098;15.474;2023-02-01T06:43:25;6.00;;;4.77;;
11761;SDS011;5938;47.098;15.474;2023-02-01T06:47:29;5.63;;;4.00;;
11761;SDS011;5938;47.098;15.474;2023-02-01T06:51:33;5.27;;;3.33;;
11761;SDS011;5938;47.098;15.474;2023-02-01T06:55:36;6.33;;;4.27;;
11761;SDS011;5938;47.098;15.474;2023-02-01T06:59:42;5.60;;;4.33;;
11761;SDS011;5938;47.098;15.474;2023-02-01T07:03:46;7.37;;;5.73;;
11761;SDS011;5938;47.098;15.474;2023-02-01T07:07:51;7.90;;;7.10;;
11761;SDS011;5938;47.098;15.474;2023-02-01T07:11:54;9.83;;;5.90;;
11761;SDS011;5938;47.098;15.474;2023-02-01T07:16:00;8.37;;;5.03;;
11761;SDS011;5938;47.098;15.474;2023-02-01T07:20:05;11.60;;;9.30;;
11761;SDS011;5938;47.098;15.474;2023-02-01T07:24:10;9.90;;;7.77;;
11761;SDS011;5938;47.098;15.474;2023-02-01T07:28:14;12.97;;;9.20;;
11761;SDS011;5938;47.098;15.474;2023-02-01T07:32:19;8.90;;;7.00;;
11761;SDS011;5938;47.098;15.474;2023-02-01T07:36:23;10.87;;;8.13;;
11761;SDS011;5938;47.098;15.474;2023-02-01T07:40:27;13.80;;;7.70;;
11761;SDS011;5938;47.098;15.474;2023-02-01T07:44:31;10.50;;;6.90;;
11761;SDS011;5938;47.098;15.474;2023-02-01T07:48:37;6.67;;;5.67;;
11761;SDS011;5938;47.098;15.474;2023-02-01T07:52:40;8.20;;;6.97;;
11761;SDS011;5938;47.098;15.474;2023-02-01T07:56:44;5.33;;;4.47;;
11761;SDS011;5938;47.098;15.474;2023-02-01T08:00:48;5.23;;;3.97;;
11761;SDS011;5938;47.098;15.474;2023-02-01T08:05:10;9.73;;;4.63;;
11761;SDS011;5938;47.098;15.474;2023-02-01T08:09:14;6.43;;;3.80;;
11761;SDS011;5938;47.098;15.474;2023-02-01T08:13:18;9.77;;;3.50;;
11761;SDS011;5938;47.098;15.474;2023-02-01T08:17:21;15.00;;;7.50;;
11761;SDS011;5938;47.098;15.474;2023-02-01T08:21:27;7.03;;;5.47;;
11761;SDS011;5938;47.098;15.474;2023-02-01T08:25:38;7.73;;;5.07;;
11761;SDS011;5938;47.098;15.474;2023-02-01T08:29:41;4.33;;;3.63;;
11761;SDS011;5938;47.098;15.474;2023-02-01T08:33:47;6.60;;;5.60;;
11761;SDS011;5938;47.098;15.474;2023-02-01T08:37:53;9.17;;;5.17;;
11761;SDS011;5938;47.098;15.474;2023-02-01T08:41:57;10.10;;;5.90;;
11761;SDS011;5938;47.098;15.474;2023-02-01T08:46:21;7.37;;;4.43;;
11761;SDS011;5938;47.098;15.474;2023-02-01T08:50:25;7.80;;;5.27;;
11761;SDS011;5938;47.098;15.474;2023-02-01T08:54:30;7.07;;;4.57;;
11761;SDS011;5938;47.098;15.474;2023-02-01T08:58:34;7.40;;;5.03;;
11761;SDS011;5938;47.098;15.474;2023-02-01T09:02:38;7.10;;;4.77;;
11761;SDS011;5938;47.098;15.474;2023-02-01T09:06:42;6.80;;;5.03;;
11761;SDS011;5938;47.098;15.474;2023-02-01T09:10:48;7.97;;;5.83;;
11761;SDS011;5938;47.098;15.474;2023-02-01T09:14:51;6.60;;;4.60;;
11761;SDS011;5938;47.098;15.474;2023-02-01T09:18:55;8.20;;;4.90;;
11761;SDS011;5938;47.098;15.474;2023-02-01T09:23:18;8.60;;;5.10;;
11761;SDS011;5938;47.098;15.474;2023-02-01T09:27:25;5.60;;;4.20;;
11761;SDS011;5938;47.098;15.474;2023-02-01T09:31:29;8.80;;;5.27;;
11761;SDS011;5938;47.098;15.474;2023-02-01T09:35:33;7.00;;;4.10;;
11761;SDS011;5938;47.098;15.474;2023-02-01T09:39:37;5.60;;;5.00;;
11761;SDS011;5938;47.098;15.474;2023-02-01T09:43:44;4.70;;;3.90;;
11761;SDS011;5938;47.098;15.474;2023-02-01T09:47:57;5.33;;;2.60;;
11761;SDS011;5938;47.098;15.474;2023-02-01T09:52:05;3.83;;;2.47;;
11761;SDS011;5938;47.098;15.474;2023-02-01T09:56:13;3.70;;;3.30;;
11761;SDS011;5938;47.098;15.474;2023-02-01T10:00:27;3.83;;;2.53;;
11761;SDS011;5938;47.098;15.474;2023-02-01T10:04:39;4.23;;;2.70;;
11761;SDS011;5938;47.098;15.474;2023-02-01T10:08:56;4.37;;;3.30;;
11761;SDS011;5938;47.098;15.474;2023-02-01T10:13:17;3.93;;;3.53;;
11761;SDS011;5938;47.098;15.474;2023-02-01T10:17:44;12.20;;;4.30;;
11761;SDS011;5938;47.098;15.474;2023-02-01T10:22:00;4.60;;;4.17;;
11761;SDS011;5938;47.098;15.474;2023-02-01T10:26:08;9.33;;;3.97;;
11761;SDS011;5938;47.098;15.474;2023-02-01T10:30:21;8.20;;;4.80;;
11761;SDS011;5938;47.098;15.474;2023-02-01T10:34:28;11.10;;;4.53;;
11761;SDS011;5938;47.098;15.474;2023-02-01T10:38:34;10.07;;;5.20;;
11761;SDS011;5938;47.098;15.474;2023-02-01T10:42:38;10.70;;;5.30;;
11761;SDS011;5938;47.098;15.474;2023-02-01T10:46:43;5.10;;;4.07;;
11761;SDS011;5938;47.098;15.474;2023-02-01T10:50:51;5.90;;;3.50;;
11761;SDS011;5938;47.098;15.474;2023-02-01T10:59:31;4.50;;;4.07;;
11761;SDS011;5938;47.098;15.474;2023-02-01T11:03:41;5.90;;;3.30;;
11761;SDS011;5938;47.098;15.474;2023-02-01T11:07:48;3.70;;;2.43;;
11761;SDS011;5938;47.098;15.474;2023-02-01T11:11:57;2.10;;;1.87;;
11761;SDS011;5938;47.098;15.474;2023-02-01T11:16:03;4.40;;;1.70;;
11761;SDS011;5938;47.098;15.474;2023-02-01T11:20:12;5.33;;;2.43;;
11761;SDS011;5938;47.098;15.474;2023-02-01T11:24:21;1.97;;;1.10;;
11761;SDS011;5938;47.098;15.474;2023-02-01T11:28:29;1.43;;;1.30;;
11761;SDS011;5938;47.098;15.474;2023-02-01T11:32:35;3.33;;;1.57;;
11761;SDS011;5938;47.098;15.474;2023-02-01T11:36:41;1.63;;;1.50;;
11761;SDS011;5938;47.098;15.474;2023-02-01T11:40:50;5.40;;;2.83;;
11761;SDS011;5938;47.098;15.474;2023-02-01T11:45:09;2.27;;;1.60;;
11761;SDS011;5938;47.098;15.474;2023-02-01T11:49:22;5.20;;;2.00;;
11761;SDS011;5938;47.098;15.474;2023-02-01T11:53:33;2.67;;;1.63;;
11761;SDS011;5938;47.098;15.474;2023-02-01T11:57:57;3.30;;;1.90;;
11761;SDS011;5938;47.098;15.474;2023-02-01T12:02:32;6.70;;;1.90;;
11761;SDS011;5938;47.098;15.474;2023-02-01T12:06:50;2.07;;;1.73;;
11761;SDS011;5938;47.098;15.474;2023-02-01T12:11:01;2.60;;;1.90;;
11761;SDS011;5938;47.098;15.474;2023-02-01T12:15:33;2.37;;;1.77;;
11761;SDS011;5938;47.098;15.474;2023-02-01T12:19:55;1.90;;;1.20;;
11761;SDS011;5938;47.098;15.474;2023-02-01T12:24:19;1.17;;;0.83;;
11761;SDS011;5938;47.098;15.474;2023-02-01T12:28:39;1.90;;;0.60;;
11761;SDS011;5938;47.098;15.474;2023-02-01T12:33:00;0.97;;;0.80;;
11761;SDS011;5938;47.098;15.474;2023-02-01T12:37:14;0.70;;;0.70;;
11761;SDS011;5938;47.098;15.474;2023-02-01T12:41:45;0.93;;;0.70;;
11761;SDS011;5938;47.098;15.474;2023-02-01T12:45:55;0.70;;;0.60;;
11761;SDS011;5938;47.098;15.474;2023-02-01T12:50:13;0.60;;;0.50;;
11761;SDS011;5938;47.098;15.474;2023-02-01T12:54:35;0.80;;;0.70;;
11761;SDS011;5938;47.098;15.474;2023-02-01T12:58:42;0.93;;;0.80;;
11761;SDS011;5938;47.098;15.474;2023-02-01T13:02:51;0.60;;;0.60;;
11761;SDS011;5938;47.098;15.474;2023-02-01T13:07:09;0.67;;;0.67;;
11761;SDS011;5938;47.098;15.474;2023-02-01T13:11:19;5.03;;;1.00;;
11761;SDS011;5938;47.098;15.474;2023-02-01T13:15:28;1.07;;;0.70;;
11761;SDS011;5938;47.098;15.474;2023-02-01T13:19:37;0.90;;;0.50;;
11761;SDS011;5938;47.098;15.474;2023-02-01T13:23:51;1.43;;;0.67;;
11761;SDS011;5938;47.098;15.474;2023-02-01T13:27:56;2.73;;;0.90;;
11761;SDS011;5938;47.098;15.474;2023-02-01T13:32:13;1.03;;;0.80;;
11761;SDS011;5938;47.098;15.474;2023-02-01T13:37:05;0.60;;;0.60;;
11761;SDS011;5938;47.098;15.474;2023-02-01T13:41:28;0.80;;;0.53;;
11761;SDS011;5938;47.098;15.474;2023-02-01T13:45:34;1.90;;;0.90;;
11761;SDS011;5938;47.098;15.474;2023-02-01T13:49:45;0.70;;;0.60;;
11761;SDS011;5938;47.098;15.474;2023-02-01T13:53:49;0.60;;;0.60;;
11761;SDS011;5938;47.098;15.474;2023-02-01T13:58:00;0.97;;;0.73;;
11761;SDS011;5938;47.098;15.474;2023-02-01T14:06:53;1.03;;;0.40;;
11761;SDS011;5938;47.098;15.474;2023-02-01T14:10:59;0.70;;;0.60;;
11761;SDS011;5938;47.098;15.474;2023-02-01T14:15:18;0.47;;;0.47;;
11761;SDS011;5938;47.098;15.474;2023-02-01T14:19:25;0.93;;;0.57;;
11761;SDS011;5938;47.098;15.474;2023-02-01T14:23:30;1.67;;;0.63;;
11761;SDS011;5938;47.098;15.474;2023-02-01T14:27:43;4.37;;;1.33;;
11761;SDS011;5938;47.098;15.474;2023-02-01T14:31:51;0.50;;;0.50;;
11761;SDS011;5938;47.098;15.474;2023-02-01T14:36:01;0.80;;;0.70;;
11761;SDS011;5938;47.098;15.474;2023-02-01T14:40:14;1.10;;;0.70;;
11761;SDS011;5938;47.098;15.474;2023-02-01T14:44:24;1.10;;;0.67;;
11761;SDS011;5938;47.098;15.474;2023-02-01T14:48:44;1.23;;;0.60;;
11761;SDS011;5938;47.098;15.474;2023-02-01T14:53:01;1.60;;;0.90;;
11761;SDS011;5938;47.098;15.474;2023-02-01T14:57:14;0.80;;;0.70;;
11761;SDS011;5938;47.098;15.474;2023-02-01T15:01:21;0.73;;;0.67;;
11761;SDS011;5938;47.098;15.474;2023-02-01T15:05:29;1.30;;;0.80;;
11761;SDS011;5938;47.098;15.474;2023-02-01T15:09:36;2.30;;;0.83;;
11761;SDS011;5938;47.098;15.474;2023-02-01T15:13:47;0.67;;;0.50;;
11761;SDS011;5938;47.098;15.474;2023-02-01T15:17:54;0.70;;;0.70;;
11761;SDS011;5938;47.098;15.474;2023-02-01T15:22:01;12.57;;;1.40;;
11761;SDS011;5938;47.098;15.474;2023-02-01T15:26:05;4.03;;;1.30;;
11761;SDS011;5938;47.098;15.474;2023-02-01T15:30:16;1.47;;;1.00;;
11761;SDS011;5938;47.098;15.474;2023-02-01T15:34:21;2.00;;;0.70;;
11761;SDS011;5938;47.098;15.474;2023-02-01T15:38:30;3.73;;;0.90;;
11761;SDS011;5938;47.098;15.474;2023-02-01T15:42:40;1.27;;;0.70;;
11761;SDS011;5938;47.098;15.474;2023-02-01T15:46:55;0.53;;;0.53;;
11761;SDS011;5938;47.098;15.474;2023-02-01T15:50:59;0.80;;;0.77;;
11761;SDS011;5938;47.098;15.474;2023-02-01T15:55:05;0.70;;;0.70;;
11761;SDS011;5938;47.098;15.474;2023-02-01T15:59:20;1.30;;;1.00;;
11761;SDS011;5938;47.098;15.474;2023-02-01T16:03:28;1.10;;;0.70;;
11761;SDS011;5938;47.098;15.474;2023-02-01T16:07:38;2.10;;;0.73;;
11761;SDS011;5938;47.098;15.474;2023-02-01T16:11:57;0.73;;;0.70;;
11761;SDS011;5938;47.098;15.474;2023-02-01T16:16:02;0.90;;;0.90;;
11761;SDS011;5938;47.098;15.474;2023-02-01T16:20:10;1.53;;;0.90;;
11761;SDS011;5938;47.098;15.474;2023-02-01T16:24:14;2.33;;;2.13;;
11761;SDS011;5938;47.098;15.474;2023-02-01T16:28:19;6.30;;;1.13;;
11761;SDS011;5938;47.098;15.474;2023-02-01T16:32:23;4.40;;;1.20;;
11761;SDS011;5938;47.098;15.474;2023-02-01T16:36:30;9.90;;;1.70;;
11761;SDS011;5938;47.098;15.474;2023-02-01T16:40:34;0.80;;;0.80;;
11761;SDS011;5938;47.098;15.474;2023-02-01T16:44:40;2.33;;;0.90;;
11761;SDS011;5938;47.098;15.474;2023-02-01T16:48:48;17.43;;;2.90;;
11761;SDS011;5938;47.098;15.474;2023-02-01T16:52:54;2.10;;;1.17;;
11761;SDS011;5938;47.098;15.474;2023-02-01T16:56:58;2.23;;;1.00;;
11761;SDS011;5938;47.098;15.474;2023-02-01T17:01:07;2.70;;;1.10;;
11761;SDS011;5938;47.098;15.474;2023-02-01T17:05:11;0.93;;;0.83;;
11761;SDS011;5938;47.098;15.474;2023-02-01T17:09:15;9.50;;;1.67;;
11761;SDS011;5938;47.098;15.474;2023-02-01T17:13:20;4.73;;;1.43;;
11761;SDS011;5938;47.098;15.474;2023-02-01T17:17:28;1.23;;;1.00;;
11761;SDS011;5938;47.098;15.474;2023-02-01T17:21:41;1.40;;;0.60;;
11761;SDS011;5938;47.098;15.474;2023-02-01T17:25:50;1.80;;;1.03;;
11761;SDS011;5938;47.098;15.474;2023-02-01T17:29:55;1.93;;;1.17;;
11761;SDS011;5938;47.098;15.474;2023-02-01T17:34:03;6.27;;;1.23;;
11761;SDS011;5938;47.098;15.474;2023-02-01T17:38:09;1.27;;;0.93;;
11761;SDS011;5938;47.098;15.474;2023-02-01T17:42:14;1.43;;;1.10;;
11761;SDS011;5938;47.098;15.474;2023-02-01T17:46:20;2.77;;;1.93;;
11761;SDS011;5938;47.098;15.474;2023-02-01T17:50:30;2.23;;;1.23;;
11761;SDS011;5938;47.098;15.474;2023-02-01T17:54:38;4.47;;;1.87;;
11761;SDS011;5938;47.098;15.474;2023-02-01T17:58:47;1.27;;;1.17;;
11761;SDS011;5938;47.098;15.474;2023-02-01T18:02:52;1.63;;;1.17;;
11761;SDS011;5938;47.098;15.474;2023-02-01T18:06:59;2.67;;;1.70;;
11761;SDS011;5938;47.098;15.474;2023-02-01T18:11:04;2.30;;;1.40;;
11761;SDS011;5938;47.098;15.474;2023-02-01T18:15:14;2.10;;;1.90;;
11761;SDS011;5938;47.098;15.474;2023-02-01T18:19:22;2.50;;;2.00;;
11761;SDS011;5938;47.098;15.474;2023-02-01T18:23:30;2.60;;;2.13;;
11761;SDS011;5938;47.098;15.474;2023-02-01T18:27:34;1.90;;;1.80;;
11761;SDS011;5938;47.098;15.474;2023-02-01T18:31:43;2.03;;;1.83;;
11761;SDS011;5938;47.098;15.474;2023-02-01T18:35:48;8.33;;;2.93;;
11761;SDS011;5938;47.098;15.474;2023-02-01T18:39:56;3.07;;;2.00;;
11761;SDS011;5938;47.098;15.474;2023-02-01T18:44:02;6.50;;;2.63;;
11761;SDS011;5938;47.098;15.474;2023-02-01T18:48:09;4.17;;;2.30;;
11761;SDS011;5938;47.098;15.474;2023-02-01T18:52:16;3.17;;;2.23;;
11761;SDS011;5938;47.098;15.474;2023-02-01T18:56:27;17.97;;;2.70;;
11761;SDS011;5938;47.098;15.474;2023-02-01T19:00:35;2.93;;;1.70;;
11761;SDS011;5938;47.098;15.474;2023-02-01T19:04:43;6.63;;;2.23;;
11761;SDS011;5938;47.098;15.474;2023-02-01T19:08:49;4.17;;;2.80;;
11761;SDS011;5938;47.098;15.474;2023-02-01T19:12:57;2.47;;;2.10;;
11761;SDS011;5938;47.098;15.474;2023-02-01T19:17:02;2.03;;;1.80;;
11761;SDS011;5938;47.098;15.474;2023-02-01T19:21:08;2.70;;;2.50;;
11761;SDS011;5938;47.098;15.474;2023-02-01T19:25:16;4.80;;;2.50;;
11761;SDS011;5938;47.098;15.474;2023-02-01T19:29:24;3.43;;;3.20;;
11761;SDS011;5938;47.098;15.474;2023-02-01T19:33:30;4.93;;;3.93;;
11761;SDS011;5938;47.098;15.474;2023-02-01T19:37:37;4.53;;;2.57;;
11761;SDS011;5938;47.098;15.474;2023-02-01T19:41:45;3.03;;;2.27;;
11761;SDS011;5938;47.098;15.474;2023-02-01T19:45:50;2.23;;;1.80;;
11761;SDS011;5938;47.098;15.474;2023-02-01T19:49:57;3.57;;;2.23;;
11761;SDS011;5938;47.098;15.474;2023-02-01T19:54:04;3.70;;;2.97;;
11761;SDS011;5938;47.098;15.474;2023-02-01T19:58:10;4.60;;;3.30;;
11761;SDS011;5938;47.098;15.474;2023-02-01T20:02:19;4.67;;;3.37;;
11761;SDS011;5938;47.098;15.474;2023-02-01T20:06:26;6.47;;;3.50;;
11761;SDS011;5938;47.098;15.474;2023-02-01T20:10:31;2.53;;;2.33;;
11761;SDS011;5938;47.098;15.474;2023-02-01T20:14:37;4.23;;;3.47;;
11761;SDS011;5938;47.098;15.474;2023-02-01T20:18:45;4.33;;;2.90;;
11761;SDS011;5938;47.098;15.474;2023-02-01T20:22:52;8.13;;;3.27;;
11761;SDS011;5938;47.098;15.474;2023-02-01T20:26:59;3.57;;;3.00;;
11761;SDS011;5938;47.098;15.474;2023-02-01T20:31:05;10.90;;;3.23;;
11761;SDS011;5938;47.098;15.474;2023-02-01T20:35:13;2.30;;;2.10;;
11761;SDS011;5938;47.098;15.474;2023-02-01T20:39:18;5.60;;;2.93;;
11761;SDS011;5938;47.098;15.474;2023-02-01T20:43:24;3.53;;;2.67;;
11761;SDS011;5938;47.098;15.474;2023-02-01T20:47:30;5.17;;;2.47;;
11761;SDS011;5938;47.098;15.474;2023-02-01T20:51:38;4.00;;;2.50;;
11761;SDS011;5938;47.098;15.474;2023-02-01T20:55:44;2.80;;;2.50;;
11761;SDS011;5938;47.098;15.474;2023-02-01T20:59:49;6.50;;;2.90;;
11761;SDS011;5938;47.098;15.474;2023-02-01T21:03:55;3.13;;;2.93;;
11761;SDS011;5938;47.098;15.474;2023-02-01T21:08:01;3.03;;;2.03;;
11761;SDS011;5938;47.098;15.474;2023-02-01T21:12:06;2.70;;;2.50;;
11761;SDS011;5938;47.098;15.474;2023-02-01T21:16:12;3.03;;;2.07;;
11761;SDS011;5938;47.098;15.474;2023-02-01T21:20:17;2.97;;;2.70;;
11761;SDS011;5938;47.098;15.474;2023-02-01T21:24:24;3.03;;;2.60;;
11761;SDS011;5938;47.098;15.474;2023-02-01T21:28:28;2.93;;;2.10;;
11761;SDS011;5938;47.098;15.474;2023-02-01T21:32:36;5.23;;;3.00;;
11761;SDS011;5938;47.098;15.474;2023-02-01T21:36:39;5.30;;;3.70;;
11761;SDS011;5938;47.098;15.474;2023-02-01T21:40:52;4.87;;;3.20;;
11761;SDS011;5938;47.098;15.474;2023-02-01T21:45:10;5.40;;;3.33;;
11761;SDS011;5938;47.098;15.474;2023-02-01T21:49:16;4.90;;;2.30;;
11761;SDS011;5938;47.098;15.474;2023-02-01T21:53:21;1.30;;;1.20;;
11761;SDS011;5938;47.098;15.474;2023-02-01T21:57:27;1.77;;;1.50;;
11761;SDS011;5938;47.098;15.474;2023-02-01T22:01:31;2.10;;;1.57;;
11761;SDS011;5938;47.098;15.474;2023-02-01T22:05:35;1.20;;;1.10;;
11761;SDS011;5938;47.098;15.474;2023-02-01T22:09:39;1.30;;;1.20;;
11761;SDS011;5938;47.098;15.474;2023-02-01T22:13:44;2.67;;;1.70;;
11761;SDS011;5938;47.098;15.474;2023-02-01T22:17:48;1.97;;;1.50;;
11761;SDS011;5938;47.098;15.474;2023-02-01T22:21:51;1.13;;;0.90;;
11761;SDS011;5938;47.098;15.474;2023-02-01T22:25:57;2.93;;;1.63;;
11761;SDS011;5938;47.098;15.474;2023-02-01T22:30:03;3.43;;;1.43;;
11761;SDS011;5938;47.098;15.474;2023-02-01T22:34:08;1.73;;;1.57;;
11761;SDS011;5938;47.098;15.474;2023-02-01T22:38:13;1.37;;;1.27;;
11761;SDS011;5938;47.098;15.474;2023-02-01T22:42:16;3.27;;;1.40;;
11761;SDS011;5938;47.098;15.474;2023-02-01T22:46:22;8.40;;;2.80;;
11761;SDS011;5938;47.098;15.474;2023-02-01T22:50:26;1.57;;;1.37;;
11761;SDS011;5938;47.098;15.474;2023-02-01T22:54:30;2.53;;;1.80;;
11761;SDS011;5938;47.098;15.474;2023-02-01T22:58:34;3.27;;;2.40;;
11761;SDS011;5938;47.098;15.474;2023-02-01T23:02:41;3.03;;;2.53;;
11761;SDS011;5938;47.098;15.474;2023-02-01T23:06:45;3.40;;;1.97;;
11761;SDS011;5938;47.098;15.474;2023-02-01T23:10:56;4.37;;;2.47;;
11761;SDS011;5938;47.098;15.474;2023-02-01T23:15:00;4.57;;;2.97;;
11761;SDS011;5938;47.098;15.474;2023-02-01T23:19:08;3.50;;;2.40;;
11761;SDS011;5938;47.098;15.474;2023-02-01T23:23:12;2.23;;;2.13;;
11761;SDS011;5938;47.098;15.474;2023-02-01T23:27:15;3.90;;;2.50;;
11761;SDS011;5938;47.098;15.474;2023-02-01T23:31:20;3.17;;;2.60;;
11761;SDS011;5938;47.098;15.474;2023-02-01T23:35:26;2.60;;;2.27;;
11761;SDS011;5938;47.098;15.474;2023-02-01T23:39:30;3.37;;;2.97;;
11761;SDS011;5938;47.098;15.474;2023-02-01T23:43:34;2.40;;;1.50;;
11761;SDS011;5938;47.098;15.474;2023-02-01T23:47:55;2.60;;;2.40;;
11761;SDS011;5938;47.098;15.474;2023-02-01T23:52:00;2.03;;;1.73;;
11761;SDS011;5938;47.098;15.474;2023-02-01T23:56:04;2.17;;;1.87;;
